Yacolt, Washington
Current Conditions -  °F | °C
As of 9:53 PM on Wednesday 22 Oct 2014 (Local Time) from KVUO Reporting Station
Overcast Overcast  
Wind Chill: 57°   Ceiling: 10000
Heat Index: 57°   Visibility: 10mi
Dew Point: 51°   Wind: 6mph
Humidity: 81%   Direction: 150°SSE
Pressure: 29.75"   Gusts: NA
Location:  45.87°N, 122.41°W
Report Text: KVUO 230453Z AUTO 15005KT 10SM SCT075 BKN100 OVC120 14/11 A2975 RMK AO2 RAB05E47 SLP076 P0005 T01390106
Loading
Personal Weather Stations






























Interactive Weather Map New forecast layout! Learn more

10-Day Weather Forecast

Advertisements
Track Severe Weather on mobile